^^
Grace C. Lehan Memorial Weather Station Historical Data
Daily Summary for February 3, 2021 Units:  English    Metric   Both
Daily Weekly Monthly Yearly
  High: Low: Average:
Temperature: 71.4 °F 53.1 °F 61.1 °F
Dew Point: 55.7 °F 48.1 °F 51.7 °F
Humidity: 94% 44% 73%
Wind Speed: 1.8mph 0mph 0.1mph
Wind Gust: 9mph - -
Wind- - SSE
Pressure: 29.87 in 29.77 in -
Precipitation: 0.41 in    
 
 
Tabular Data for February 3, 2021
Time Temperature Dew Point Pressure Wind Wind Speed Wind Gust Humidity Rainfall Rate (Hourly) solar
00:09 59.5 °F 51.2 °F 29.80 in Calm     74% 0.00 in 0 W/m2
00:14 59.5 °F 51.4 °F 29.80 in Calm     74.6% 0.00 in 0 W/m2
00:19 59.4 °F 51.4 °F 29.80 in Calm     75% 0.00 in 0 W/m2
00:24 59.3 °F 51.3 °F 29.80 in Calm     75% 0.00 in 0 W/m2
00:29 59.2 °F 51.2 °F 29.81 in Calm     75% 0.00 in 0 W/m2
00:34 59.1 °F 51.2 °F 29.81 in Calm     75% 0.00 in 0 W/m2
00:39 59 °F 51 °F 29.80 in Calm     74.7% 0.00 in 0 W/m2
00:44 58.9 °F 50.6 °F 29.80 in Calm     74% 0.00 in 0 W/m2
00:49 58.8 °F 50.7 °F 29.80 in Calm     74.6% 0.00 in 0 W/m2
00:54 58.7 °F 50.8 °F 29.80 in WSW 0.2 mph 3 mph 75% 0.00 in 0 W/m2
00:59 58.5 °F 50.6 °F 29.80 in WSW 0.3 mph 3 mph 74.9% 0.00 in 0 W/m2
01:04 58.4 °F 50.1 °F 29.80 in WSW 0.3 mph 3 mph 74% 0.00 in 0 W/m2
01:09 58.2 °F 50 °F 29.80 in WSW 0.1 mph 3 mph 74% 0.00 in 0 W/m2
01:14 58.2 °F 50.2 °F 29.80 in Calm   3 mph 74.8% 0.00 in 0 W/m2
01:19 58.1 °F 50.2 °F 29.80 in Calm   3 mph 75% 0.00 in 0 W/m2
01:24 58 °F 50.1 °F 29.80 in Calm   3 mph 75% 0.00 in 0 W/m2
01:29 57.8 °F 50 °F 29.80 in Calm   3 mph 75% 0.00 in 0 W/m2
01:34 57.7 °F 49.9 °F 29.80 in Calm   3 mph 75% 0.00 in 0 W/m2
01:39 57.6 °F 49.8 °F 29.80 in Calm     75.2% 0.00 in 0 W/m2
01:44 57.5 °F 49.9 °F 29.80 in Calm     75.8% 0.00 in 0 W/m2
01:49 57.3 °F 49.8 °F 29.81 in Calm     76% 0.00 in 0 W/m2
01:54 57.2 °F 49.7 °F 29.80 in Calm     76% 0.00 in 0 W/m2
01:59 57.1 °F 49.6 °F 29.80 in Calm     76% 0.00 in 0 W/m2
02:04 57.1 °F 49.6 °F 29.81 in Calm     76% 0.00 in 0 W/m2
02:09 57 °F 49.5 °F 29.81 in Calm     76% 0.00 in 0 W/m2
02:14 56.9 °F 49.4 °F 29.81 in Calm     76% 0.00 in 0 W/m2
02:19 56.9 °F 49.4 °F 29.81 in Calm     76% 0.00 in 0 W/m2
02:24 56.9 °F 49.5 °F 29.81 in Calm     76% 0.00 in 0 W/m2
02:29 57 °F 49.5 °F 29.81 in Calm     76% 0.00 in 0 W/m2
02:34 57.1 °F 49.8 °F 29.81 in Calm     76.6% 0.00 in 0 W/m2
02:39 57.1 °F 50 °F 29.80 in Calm     76.9% 0.00 in 0 W/m2
02:44 57.1 °F 49.6 °F 29.80 in Calm     76% 0.00 in 0 W/m2
02:49 57.1 °F 49.4 °F 29.80 in WSW 0.1 mph 2 mph 75.5% 0.00 in 0 W/m2
02:54 57.2 °F 49.4 °F 29.80 in Calm   2 mph 75% 0.00 in 0 W/m2
02:59 57.2 °F 49.4 °F 29.80 in Calm   2 mph 75% 0.00 in 0 W/m2
03:04 57.2 °F 49.4 °F 29.80 in Calm   2 mph 75% 0.00 in 0 W/m2
03:09 57.2 °F 49.5 °F 29.81 in Calm     75.6% 0.00 in 0 W/m2
03:14 57 °F 49.6 °F 29.81 in Calm     76.2% 0.00 in 0 W/m2
03:19 56.9 °F 49.9 °F 29.80 in Calm     77.3% 0.00 in 0 W/m2
03:24 56.8 °F 50 °F 29.81 in Calm     78% 0.00 in 0 W/m2
03:29 56.7 °F 50.3 °F 29.81 in Calm     79.3% 0.00 in 0 W/m2
03:34 56.6 °F 50.5 °F 29.81 in Calm     80% 0.00 in 0 W/m2
03:39 56.5 °F 50.4 °F 29.82 in Calm     80% 0.00 in 0 W/m2
03:44 56.4 °F 50.6 °F 29.82 in Calm     80.9% 0.00 in 0 W/m2
03:49 56.3 °F 50.5 °F 29.81 in Calm     81% 0.00 in 0 W/m2
03:54 56.2 °F 50.4 °F 29.81 in Calm     81% 0.00 in 0 W/m2
03:59 56 °F 50.3 °F 29.81 in Calm     81% 0.00 in 0 W/m2
04:00 55.9 °F 50.2 °F 29.81 in Calm     81% 0.00 in 0 W/m2
04:09 55.7 °F 50 °F 29.81 in Calm     81% 0.00 in 0 W/m2
04:14 55.5 °F 49.8 °F 29.81 in Calm     81% 0.00 in 0 W/m2
04:19 55.4 °F 49.9 °F 29.81 in Calm     81.7% 0.00 in 0 W/m2
04:24 55.3 °F 49.9 °F 29.81 in Calm     82% 0.00 in 0 W/m2
04:29 55.1 °F 49.9 °F 29.81 in Calm     82.5% 0.00 in 0 W/m2
04:34 55 °F 50 °F 29.81 in Calm     83% 0.00 in 0 W/m2
04:39 55 °F 49.9 °F 29.81 in Calm     83% 0.00 in 0 W/m2
04:44 54.8 °F 49.8 °F 29.82 in Calm     83% 0.00 in 0 W/m2
04:49 54.7 °F 49.8 °F 29.82 in Calm     83.7% 0.00 in 0 W/m2
04:54 54.5 °F 49.8 °F 29.82 in Calm     84% 0.00 in 0 W/m2
04:59 54.4 °F 49.7 °F 29.82 in Calm     84% 0.00 in 0 W/m2
05:04 54.3 °F 49.6 °F 29.82 in Calm     84% 0.00 in 0 W/m2
05:09 54.2 °F 49.6 °F 29.82 in Calm     84.3% 0.00 in 0 W/m2
05:14 54.1 °F 49.7 °F 29.82 in Calm     85% 0.00 in 0 W/m2
05:19 53.9 °F 49.6 °F 29.82 in Calm     85.3% 0.00 in 0 W/m2
05:24 53.8 °F 49.7 °F 29.82 in Calm     86% 0.00 in 0 W/m2
05:29 53.6 °F 49.6 °F 29.82 in Calm     86% 0.00 in 0 W/m2
05:34 53.5 °F 49.5 °F 29.82 in Calm     86% 0.00 in 0 W/m2
05:39 53.5 °F 49.7 °F 29.83 in Calm     86.8% 0.00 in 0 W/m2
05:44 53.5 °F 49.7 °F 29.83 in Calm     87% 0.00 in 0 W/m2
05:49 53.4 °F 49.6 °F 29.83 in Calm     87% 0.00 in 5 W/m2
05:54 53.3 °F 49.5 °F 29.83 in Calm     87% 0.00 in 9 W/m2
05:59 53.2 °F 49.7 °F 29.83 in Calm     87.8% 0.00 in 12 W/m2
06:04 53.1 °F 49.7 °F 29.84 in Calm     88% 0.00 in 16 W/m2
06:09 53.1 °F 49.7 °F 29.84 in Calm     88% 0.00 in 23 W/m2
06:14 53.1 °F 49.7 °F 29.84 in Calm     88% 0.00 in 32 W/m2
06:19 53.1 °F 49.7 °F 29.84 in Calm     88% 0.00 in 42 W/m2
06:24 53.1 °F 49.7 °F 29.84 in Calm     88.2% 0.00 in 56 W/m2
06:29 53.2 °F 49.9 °F 29.84 in Calm     88.8% 0.00 in 67 W/m2
06:34 53.3 °F 50.2 °F 29.85 in Calm     89% 0.00 in 72 W/m2
06:39 53.6 °F 50.5 °F 29.85 in Calm     89% 0.00 in 83 W/m2
06:44 53.9 °F 50.8 °F 29.85 in Calm     89% 0.00 in 95 W/m2
06:49 54.2 °F 51.1 °F 29.85 in Calm     89% 0.00 in 105 W/m2
06:54 54.5 °F 51.1 °F 29.85 in Calm     88.2% 0.00 in 98 W/m2
06:59 54.8 °F 51.4 °F 29.85 in Calm     88% 0.00 in 90 W/m2
07:04 55.1 °F 51.6 °F 29.85 in Calm     87.8% 0.00 in 90 W/m2
07:09 55.4 °F 51.6 °F 29.85 in WSW 0.1 mph 3 mph 87% 0.00 in 97 W/m2
07:14 55.6 °F 51.6 °F 29.85 in Calm   3 mph 86.5% 0.00 in 118 W/m2
07:19 55.8 °F 51.7 °F 29.86 in Calm   3 mph 86% 0.00 in 132 W/m2
07:24 56.1 °F 51.7 °F 29.86 in Calm   3 mph 85.2% 0.00 in 148 W/m2
07:29 56.3 °F 51.5 °F 29.86 in WSW 0.1 mph 3 mph 84% 0.00 in 156 W/m2
07:34 56.6 °F 51.6 °F 29.86 in Calm   3 mph 83.5% 0.00 in 171 W/m2
07:39 56.9 °F 51.6 °F 29.86 in West 0.4 mph 3 mph 82.6% 0.00 in 174 W/m2
07:44 57.2 °F 51.8 °F 29.86 in Calm   3 mph 82% 0.00 in 171 W/m2
07:49 57.5 °F 51.8 °F 29.86 in Calm   3 mph 81% 0.00 in 169 W/m2
07:54 57.8 °F 51.9 °F 29.86 in NW 0.1 mph 4 mph 80.6% 0.00 in 160 W/m2
07:59 58.1 °F 51.9 °F 29.86 in Calm   4 mph 79.9% 0.00 in 160 W/m2
08:00 58.2 °F 51.7 °F 29.86 in Calm   4 mph 79% 0.00 in 160 W/m2
08:09 58.3 °F 51.4 °F 29.87 in NNW 0.1 mph 2 mph 78% 0.00 in 200 W/m2
08:14 58.5 °F 51.8 °F 29.87 in North 0.4 mph 4 mph 78.3% 0.00 in 225 W/m2
08:19 58.8 °F 52.1 °F 29.87 in NNW 0.2 mph 4 mph 78.4% 0.00 in 260 W/m2
08:24 59.3 °F 52.2 °F 29.87 in Calm   4 mph 77.3% 0.00 in 274 W/m2
08:29 59.8 °F 52.3 °F 29.87 in Calm   4 mph 76.1% 0.00 in 267 W/m2
08:34 60.3 °F 52.1 °F 29.87 in NNE 0.2 mph 4 mph 74.4% 0.00 in 265 W/m2
08:39 60.6 °F 52 °F 29.87 in Calm   2 mph 73.2% 0.00 in 250 W/m2
08:44 60.8 °F 52.3 °F 29.87 in Calm   2 mph 73.5% 0.00 in 276 W/m2
08:49 61 °F 52.1 °F 29.87 in NNE 0.5 mph 4 mph 72.5% 0.00 in 313 W/m2
08:54 61.3 °F 52.5 °F 29.87 in NNE 0.2 mph 4 mph 72.8% 0.00 in 279 W/m2
08:59 61.6 °F 52.4 °F 29.87 in NNE 0.9 mph 4 mph 71.7% 0.00 in 260 W/m2
09:04 61.9 °F 52.2 °F 29.87 in NNE 0.5 mph 4 mph 70.5% 0.00 in 285 W/m2
09:09 62.1 °F 52.6 °F 29.87 in Calm   3 mph 70.9% 0.00 in 318 W/m2
09:13 62.3 °F 53 °F 29.87 in Calm   3 mph 71.6% 0.00 in 345 W/m2
09:19 62.8 °F 52.5 °F 29.87 in Calm   3 mph 69.1% 0.00 in 432 W/m2
09:24 63.3 °F 52.5 °F 29.87 in NNE 0.7 mph 4 mph 68% 0.00 in 434 W/m2
09:29 64 °F 52 °F 29.87 in Calm   4 mph 65.1% 0.00 in 438 W/m2
09:34 64.5 °F 52.5 °F 29.87 in NNW 0.7 mph 4 mph 65% 0.00 in 461 W/m2
09:39 65 °F 52.4 °F 29.87 in NNE 0.2 mph 4 mph 63.7% 0.00 in 438 W/m2
09:44 65.3 °F 52.3 °F 29.87 in Calm   4 mph 62.8% 0.00 in 483 W/m2
09:49 65.7 °F 52.1 °F 29.87 in NNE 0.3 mph 4 mph 61.4% 0.00 in 610 W/m2
09:54 66.1 °F 52.3 °F 29.86 in NE 0.2 mph 4 mph 61.2% 0.00 in 624 W/m2
09:59 66.5 °F 51.4 °F 29.87 in ENE 0.5 mph 5 mph 58.3% 0.00 in 585 W/m2
10:04 66.8 °F 50.6 °F 29.86 in Calm   5 mph 56.1% 0.00 in 573 W/m2
10:09 67.3 °F 52 °F 29.86 in NE 0.1 mph 2 mph 57.9% 0.00 in 533 W/m2
10:14 67.9 °F 52.2 °F 29.86 in Calm   2 mph 57.2% 0.00 in 548 W/m2
10:19 68.1 °F 50.9 °F 29.86 in Calm   2 mph 54.1% 0.00 in 527 W/m2
10:24 68.1 °F 50.2 °F 29.86 in NE 0.3 mph 3 mph 52.9% 0.00 in 554 W/m2
10:29 68.2 °F 50.4 °F 29.86 in NE 0.4 mph 3 mph 53% 0.00 in 559 W/m2
10:34 68.5 °F 50.4 °F 29.86 in Calm   3 mph 52.5% 0.00 in 534 W/m2
10:39 68.7 °F 50 °F 29.86 in Calm   1 mph 51.4% 0.00 in 557 W/m2
10:44 68.9 °F 50 °F 29.86 in Calm   1 mph 51% 0.00 in 582 W/m2
10:49 69.1 °F 51 °F 29.86 in NE 0.1 mph 3 mph 52.6% 0.00 in 605 W/m2
10:54 69.7 °F 51.2 °F 29.86 in NE 0.1 mph 3 mph 51.7% 0.00 in 624 W/m2
10:59 70.4 °F 51.3 °F 29.86 in NE 0.1 mph 3 mph 50.8% 0.00 in 603 W/m2
11:04 70.8 °F 51 °F 29.86 in ENE 0.2 mph 3 mph 49.5% 0.00 in 596 W/m2
11:09 70.8 °F 50.8 °F 29.86 in Calm   2 mph 49.1% 0.00 in 573 W/m2
11:14 70.8 °F 50.7 °F 29.86 in Calm   2 mph 49.1% 0.00 in 536 W/m2
11:19 70.7 °F 51.2 °F 29.86 in Calm   2 mph 50% 0.00 in 527 W/m2
11:24 70.7 °F 51.8 °F 29.85 in Calm   2 mph 51.1% 0.00 in 615 W/m2
11:29 71.1 °F 52.1 °F 29.85 in NE 0.1 mph 2 mph 51.2% 0.00 in 642 W/m2
11:34 71.4 °F 51.4 °F 29.85 in Calm   2 mph 49.2% 0.00 in 557 W/m2
11:39 71.4 °F 50.5 °F 29.85 in ENE 0.3 mph 5 mph 47.6% 0.00 in 461 W/m2
11:44 71.2 °F 50.3 °F 29.85 in Calm   5 mph 47.5% 0.00 in 385 W/m2
11:49 71.2 °F 50.6 °F 29.85 in Calm   5 mph 48.1% 0.00 in 383 W/m2
11:54 71.1 °F 50.1 °F 29.85 in Calm   5 mph 47.3% 0.00 in 362 W/m2
11:59 71 °F 49 °F 29.85 in Calm   5 mph 45.7% 0.00 in 332 W/m2
12:00 70.8 °F 48.4 °F 29.84 in Calm   5 mph 45% 0.00 in 292 W/m2
12:09 70.7 °F 49.9 °F 29.84 in Calm     47.7% 0.00 in 283 W/m2
12:14 70.7 °F 50.9 °F 29.84 in Calm     49.6% 0.00 in 318 W/m2
12:19 70.6 °F 50.1 °F 29.85 in Calm     48.2% 0.00 in 318 W/m2
12:24 70.6 °F 51.2 °F 29.84 in Calm   1 mph 50.3% 0.00 in 308 W/m2
12:29 70.6 °F 50.8 °F 29.84 in Calm   1 mph 49.4% 0.00 in 336 W/m2
12:34 70.6 °F 51.4 °F 29.84 in ENE 0.1 mph 3 mph 50.7% 0.00 in 343 W/m2
12:39 70.7 °F 49.8 °F 29.84 in Calm   3 mph 47.6% 0.00 in 387 W/m2
12:44 70.9 °F 49.9 °F 29.84 in ENE 0.1 mph 3 mph 47.4% 0.00 in 387 W/m2
12:49 71.1 °F 49.5 °F 29.84 in Calm   3 mph 46.4% 0.00 in 338 W/m2
12:54 71.2 °F 49.5 °F 29.84 in ENE 0.2 mph 4 mph 46.1% 0.00 in 316 W/m2
12:59 71.3 °F 49.1 °F 29.84 in Calm   4 mph 45.4% 0.00 in 415 W/m2
13:04 71.2 °F 49.3 °F 29.84 in ENE 0.4 mph 4 mph 45.8% 0.00 in 420 W/m2
13:09 71.2 °F 48.4 °F 29.84 in East 0.2 mph 4 mph 44.3% 0.00 in 373 W/m2
13:14 71.3 °F 49.7 °F 29.84 in SW 0.3 mph 4 mph 46.5% 0.00 in 339 W/m2
13:19 71.3 °F 48.9 °F 29.84 in SSW 0.1 mph 4 mph 44.9% 0.00 in 316 W/m2
13:24 71.2 °F 48.1 °F 29.84 in South 0.2 mph 4 mph 44% 0.00 in 316 W/m2
13:29 70.9 °F 48.4 °F 29.84 in SW 1.1 mph 6 mph 44.8% 0.00 in 308 W/m2
13:34 70.8 °F 48.8 °F 29.85 in SW 0.2 mph 6 mph 45.7% 0.00 in 281 W/m2
13:39 70.5 °F 49.5 °F 29.84 in SW 0.3 mph 3 mph 47.4% 0.00 in 290 W/m2
13:44 70.3 °F 49.2 °F 29.84 in SW 0.2 mph 5 mph 47% 0.00 in 285 W/m2
13:49 70.2 °F 50.2 °F 29.84 in SW 1.6 mph 6 mph 49.2% 0.00 in 279 W/m2
13:54 70 °F 51.2 °F 29.84 in WSW 0.6 mph 6 mph 51.2% 0.00 in 287 W/m2
13:59 69.8 °F 51.9 °F 29.84 in SW 1.6 mph 9 mph 52.9% 0.00 in 297 W/m2
14:04 69.5 °F 52.3 °F 29.85 in SW 0.8 mph 9 mph 54.2% 0.00 in 297 W/m2
14:09 69.3 °F 51.9 °F 29.84 in SW 1.8 mph 9 mph 54% 0.00 in 302 W/m2
14:14 69.1 °F 52.1 °F 29.84 in SW 0.7 mph 9 mph 54.6% 0.00 in 276 W/m2
14:19 69 °F 51.8 °F 29.84 in SW 0.4 mph 9 mph 54.4% 0.00 in 250 W/m2
14:24 68.8 °F 52.1 °F 29.84 in SW 0.4 mph 9 mph 55.2% 0.00 in 287 W/m2
14:29 68.6 °F 52.1 °F 29.84 in SW 0.2 mph 9 mph 55.5% 0.00 in 348 W/m2
14:34 68.5 °F 52.7 °F 29.84 in SW 0.2 mph 9 mph 57% 0.00 in 401 W/m2
14:39 68.6 °F 53.2 °F 29.84 in Calm   3 mph 58% 0.00 in 346 W/m2
14:44 68.6 °F 52.6 °F 29.83 in Calm   3 mph 56.6% 0.00 in 292 W/m2
14:49 68.4 °F 52.1 °F 29.83 in SW 0.2 mph 4 mph 56.1% 0.00 in 225 W/m2
14:54 68 °F 51.5 °F 29.82 in Calm   4 mph 55.5% 0.00 in 197 W/m2
14:59 67.8 °F 51.7 °F 29.82 in Calm   4 mph 56.3% 0.00 in 179 W/m2
15:04 67.7 °F 51.1 °F 29.82 in Calm   4 mph 55.2% 0.00 in 230 W/m2
15:09 67.6 °F 51.2 °F 29.82 in Calm     55.7% 0.00 in 272 W/m2
15:14 67.6 °F 51.3 °F 29.82 in Calm     56% 0.00 in 272 W/m2
15:19 67.6 °F 51.7 °F 29.81 in Calm     56.7% 0.00 in 253 W/m2
15:24 67.6 °F 51.4 °F 29.81 in Calm     56.1% 0.00 in 237 W/m2
15:29 67.6 °F 51 °F 29.81 in Calm     55.3% 0.00 in 195 W/m2
15:34 67.5 °F 50.8 °F 29.81 in Calm     55.1% 0.00 in 162 W/m2
15:39 67.4 °F 51.3 °F 29.81 in SW 0.2 mph 2 mph 56.2% 0.00 in 121 W/m2
15:44 67.3 °F 51.3 °F 29.81 in Calm   2 mph 56.5% 0.00 in 123 W/m2
15:49 67.1 °F 51.4 °F 29.81 in Calm   2 mph 57% 0.00 in 114 W/m2
15:54 66.9 °F 51.1 °F 29.81 in Calm   2 mph 56.9% 0.00 in 113 W/m2
15:59 66.6 °F 50.9 °F 29.81 in Calm   2 mph 56.9% 0.00 in 105 W/m2
16:04 66.2 °F 50.4 °F 29.80 in Calm   2 mph 56.7% 0.00 in 97 W/m2
16:09 65.9 °F 50.5 °F 29.80 in Calm     57.5% 0.00 in 102 W/m2
16:14 65.6 °F 51.5 °F 29.80 in Calm     60.3% 0.00 in 125 W/m2
16:19 65.4 °F 51.2 °F 29.81 in Calm     60% 0.00 in 123 W/m2
16:24 65.2 °F 51.6 °F 29.80 in Calm     61.4% 0.00 in 113 W/m2
16:29 65.1 °F 52.1 °F 29.80 in Calm     62.7% 0.00 in 114 W/m2
16:34 64.9 °F 52.1 °F 29.80 in Calm     63% 0.00 in 172 W/m2
16:39 64.9 °F 52.4 °F 29.80 in Calm     64.1% 0.00 in 192 W/m2
16:44 64.8 °F 52.7 °F 29.80 in Calm     64.8% 0.00 in 169 W/m2
16:49 64.7 °F 52.2 °F 29.80 in Calm     63.7% 0.00 in 125 W/m2
16:54 64.7 °F 52.4 °F 29.80 in Calm     64.5% 0.00 in 98 W/m2
16:59 64.5 °F 52.5 °F 29.79 in Calm     64.8% 0.00 in 98 W/m2
17:04 64.4 °F 52.4 °F 29.79 in Calm     65% 0.00 in 105 W/m2
17:09 64.4 °F 52.5 °F 29.79 in Calm     65.1% 0.00 in 134 W/m2
17:14 64.5 °F 52.7 °F 29.79 in Calm     65.5% 0.00 in 135 W/m2
17:19 64.5 °F 52.7 °F 29.79 in Calm     65.5% 0.00 in 121 W/m2
17:24 64.5 °F 52.9 °F 29.79 in Calm     65.9% 0.00 in 125 W/m2
17:29 64.4 °F 52.4 °F 29.79 in Calm     65.2% 0.00 in 104 W/m2
17:34 64.3 °F 53 °F 29.78 in Calm     66.8% 0.00 in 102 W/m2
17:39 64.4 °F 53.6 °F 29.79 in Calm   1 mph 68% 0.00 in 95 W/m2
17:44 64.4 °F 53.4 °F 29.79 in Calm   1 mph 67.6% 0.00 in 81 W/m2
17:49 64.3 °F 53.1 °F 29.79 in Calm   1 mph 66.9% 0.00 in 54 W/m2
17:54 64.1 °F 52.6 °F 29.79 in Calm   1 mph 66% 0.00 in 46 W/m2
17:59 64 °F 52.4 °F 29.79 in Calm   1 mph 66% 0.00 in 35 W/m2
18:04 63.9 °F 52.8 °F 29.79 in Calm   1 mph 67.2% 0.00 in 32 W/m2
18:09 63.7 °F 53.1 °F 29.79 in Calm     68.5% 0.00 in 25 W/m2
18:14 63.4 °F 53 °F 29.79 in Calm     69% 0.00 in 25 W/m2
18:19 63.1 °F 53.2 °F 29.79 in Calm     70.1% 0.00 in 25 W/m2
18:24 62.8 °F 53.7 °F 29.80 in Calm     72.1% 0.00 in 25 W/m2
18:29 62.5 °F 53.9 °F 29.80 in Calm     73.3% 0.00 in 18 W/m2
18:34 62.2 °F 54 °F 29.80 in Calm     74.6% 0.01 in 16 W/m2
18:39 61.8 °F 54.1 °F 29.80 in Calm     75.7% 0.01 in 16 W/m2
18:44 61.5 °F 54.1 °F 29.80 in Calm     76.6% 0.02 in 9 W/m2
18:49 61.3 °F 54.4 °F 29.80 in Calm     78.2% 0.02 in 7 W/m2
18:54 61 °F 54.7 °F 29.80 in Calm     79.7% 0.02 in 7 W/m2
18:59 60.7 °F 54.8 °F 29.80 in Calm     81% 0.03 in 5 W/m2
19:04 60.4 °F 54.6 °F 29.80 in Calm     81.1% 0.03 in 0 W/m2
19:09 60.2 °F 54.8 °F 29.80 in Calm     82.4% 0.04 in 0 W/m2
19:14 60.1 °F 55.3 °F 29.80 in Calm     84.1% 0.05 in 0 W/m2
19:19 60 °F 55.5 °F 29.80 in Calm     85% 0.05 in 0 W/m2
19:24 59.9 °F 55.6 °F 29.80 in Calm     85.8% 0.05 in 0 W/m2
19:29 59.7 °F 55.5 °F 29.80 in Calm     86% 0.06 in 0 W/m2
19:34 59.5 °F 55.5 °F 29.81 in Calm     86.6% 0.07 in 0 W/m2
19:39 59.3 °F 55.5 °F 29.81 in Calm     87.1% 0.07 in 0 W/m2
19:44 59.2 °F 55.7 °F 29.82 in Calm     88% 0.08 in 0 W/m2
19:49 59.1 °F 55.5 °F 29.82 in Calm     88% 0.08 in 0 W/m2
19:54 58.9 °F 55.4 °F 29.81 in Calm     88.2% 0.08 in 0 W/m2
19:59 58.8 °F 55.5 °F 29.81 in Calm     89% 0.09 in 0 W/m2
20:00 58.7 °F 55.5 °F 29.81 in Calm     89% 0.09 in 0 W/m2
20:09 58.6 °F 55.7 °F 29.81 in Calm     89.8% 0.06 in 0 W/m2
20:14 58.5 °F 55.6 °F 29.81 in Calm     90% 0.06 in 0 W/m2
20:19 58.3 °F 55.2 °F 29.81 in Calm     89.1% 0.06 in 0 W/m2
20:24 58.2 °F 55.1 °F 29.81 in Calm     89.5% 0.06 in 0 W/m2
20:29 58 °F 55 °F 29.81 in Calm     89.6% 0.06 in 0 W/m2
20:34 57.9 °F 54.9 °F 29.81 in Calm     90% 0.06 in 0 W/m2
20:39 57.7 °F 54.8 °F 29.81 in Calm     90% 0.03 in 0 W/m2
20:44 57.6 °F 54.6 °F 29.82 in Calm     90% 0.03 in 0 W/m2
20:49 57.5 °F 54.8 °F 29.82 in Calm     90.6% 0.03 in 0 W/m2
20:54 57.4 °F 54.8 °F 29.82 in Calm     91% 0.03 in 0 W/m2
20:59 57.4 °F 54.8 °F 29.82 in Calm     91% 0.03 in 0 W/m2
21:04 57.4 °F 54.9 °F 29.82 in Calm     91.5% 0.03 in 0 W/m2
21:09 57.4 °F 55.1 °F 29.82 in Calm     92% 0.00 in 0 W/m2
21:14 57.3 °F 54.9 °F 29.82 in Calm     91.5% 0.00 in 0 W/m2
21:19 57.2 °F 54.6 °F 29.83 in Calm     91% 0.00 in 0 W/m2
21:24 57.1 °F 54.5 °F 29.83 in Calm     91% 0.00 in 0 W/m2
21:29 57 °F 54.4 °F 29.83 in Calm     91% 0.00 in 0 W/m2
21:34 56.8 °F 54.2 °F 29.83 in Calm     91% 0.00 in 0 W/m2
21:39 56.7 °F 54.1 °F 29.83 in Calm     91% 0.00 in 0 W/m2
21:44 56.6 °F 54 °F 29.83 in Calm     91% 0.00 in 0 W/m2
21:49 56.6 °F 54 °F 29.83 in Calm     91% 0.00 in 0 W/m2
21:54 56.5 °F 53.8 °F 29.83 in Calm     90.8% 0.02 in 0 W/m2
21:59 56.3 °F 53.4 °F 29.84 in Calm     90% 0.02 in 0 W/m2
22:04 56.2 °F 53.3 °F 29.84 in Calm     90% 0.03 in 0 W/m2
22:09 56 °F 53.2 °F 29.83 in Calm     90% 0.03 in 0 W/m2
22:14 55.9 °F 53 °F 29.83 in Calm     90% 0.03 in 0 W/m2
22:19 55.7 °F 52.8 °F 29.83 in Calm     90% 0.03 in 0 W/m2
22:24 55.5 °F 52.7 °F 29.82 in Calm     90% 0.03 in 0 W/m2
22:29 55.4 °F 52.6 °F 29.82 in Calm     90% 0.03 in 0 W/m2
22:34 55.3 °F 52.7 °F 29.82 in Calm     90.7% 0.03 in 0 W/m2
22:39 55.3 °F 52.7 °F 29.81 in Calm     91% 0.03 in 0 W/m2
22:44 55.1 °F 52.5 °F 29.81 in Calm     91% 0.03 in 0 W/m2
22:49 55.1 °F 52.5 °F 29.81 in Calm     91% 0.03 in 0 W/m2
22:54 55.1 °F 52.8 °F 29.81 in Calm     91.6% 0.04 in 0 W/m2
22:59 55.2 °F 52.9 °F 29.81 in Calm     92% 0.04 in 0 W/m2
23:04 55.2 °F 52.9 °F 29.81 in Calm     92% 0.04 in 0 W/m2
23:09 55.1 °F 52.8 °F 29.81 in Calm     92% 0.04 in 0 W/m2
23:14 55 °F 52.8 °F 29.80 in Calm     92% 0.06 in 0 W/m2
23:19 55 °F 52.7 °F 29.80 in SW 0.1 mph 1 mph 92% 0.10 in 0 W/m2
23:24 54.9 °F 52.6 °F 29.80 in SE 0.3 mph 4 mph 92% 0.13 in 0 W/m2
23:29 54.9 °F 52.6 °F 29.79 in Calm   4 mph 92% 0.16 in 0 W/m2
23:34 54.8 °F 52.6 °F 29.79 in Calm   4 mph 92.4% 0.18 in 0 W/m2
23:39 54.8 °F 52.8 °F 29.78 in Calm   1 mph 93% 0.22 in 0 W/m2
23:44 54.8 °F 52.8 °F 29.78 in Calm   1 mph 93% 0.24 in 0 W/m2
23:49 54.8 °F 52.8 °F 29.78 in Calm   1 mph 93% 0.25 in 0 W/m2
23:54 54.8 °F 52.8 °F 29.77 in Calm   1 mph 93% 0.26 in 0 W/m2
23:59 54.9 °F 53.2 °F 29.77 in Calm   1 mph 94% 0.29 in 0 W/m2
Hartford County Weather
Compliments of Weather Underground - 2 mb